Time;durP1;ratioP1;P1;durP2;ratioP2;P2;SDS_P1;SDS_P2;PMS_P1;PMS_P2;Temp;Humidity;BMP_temperature;BMP_pressure;BME280_temperature;BME280_humidity;BME280_pressure;Samples;Min_cycle;Max_cycle;Signal;HPM_P1;HPM_P2
2022/08/22 00:00:13;;;;;;;5.60;2.67;;;23.00;15.80;;;;;;5053921;28;20478;-82
2022/08/22 00:02:55;;;;;;;2.80;2.20;;;23.00;16.00;;;;;;5071045;28;20853;-81
2022/08/22 00:05:51;;;;;;;4.07;2.20;;;22.90;15.40;;;;;;5057042;28;21021;-83
2022/08/22 00:08:27;;;;;;;2.67;2.10;;;22.90;16.00;;;;;;5070626;28;20972;-81
2022/08/22 00:11:02;;;;;;;2.23;2.03;;;22.90;16.50;;;;;;5065641;28;20466;-82
2022/08/22 00:13:38;;;;;;;2.90;2.27;;;22.80;16.40;;;;;;5068722;28;20478;-82
2022/08/22 00:16:14;;;;;;;2.10;1.90;;;22.80;16.40;;;;;;5070821;28;20807;-82
2022/08/22 00:18:50;;;;;;;2.27;2.07;;;22.80;17.50;;;;;;5071409;28;20458;-82
2022/08/22 00:21:28;;;;;;;3.37;2.27;;;22.80;15.90;;;;;;5071247;28;20450;-82
2022/08/22 00:24:12;;;;;;;5.33;2.13;;;22.80;15.70;;;;;;5064821;28;21032;-83
2022/08/22 00:26:47;;;;;;;2.80;2.30;;;22.80;15.90;;;;;;5065104;28;20454;-81
2022/08/22 00:29:22;;;;;;;3.17;2.63;;;22.70;15.80;;;;;;5071482;28;20454;-81
2022/08/22 00:32:05;;;;;;;4.77;2.10;;;22.70;17.00;;;;;;5071161;28;21075;-82
2022/08/22 00:34:38;;;;;;;3.03;2.20;;;22.70;16.10;;;;;;5070409;28;20458;-82
2022/08/22 00:37:11;;;;;;;4.20;2.27;;;22.70;16.50;;;;;;5070376;28;20468;-81
2022/08/22 00:39:44;;;;;;;3.80;2.23;;;22.70;16.70;;;;;;5070644;28;20458;-84
2022/08/22 00:42:47;;;;;;;3.87;2.30;;;22.70;17.00;;;;;;5063865;28;21025;-83
2022/08/22 00:45:52;;;;;;;2.90;2.10;;;22.70;16.00;;;;;;5058443;28;20570;-82
2022/08/22 00:48:49;;;;;;;2.80;2.53;;;22.60;27.30;;;;;;5071100;28;20476;-82
2022/08/22 00:52:08;;;;;;;4.73;2.87;;;22.70;17.30;;;;;;5065124;28;20454;-82
2022/08/22 00:55:01;;;;;;;2.77;2.33;;;22.60;17.20;;;;;;4995175;28;20489;-83
2022/08/22 00:57:53;;;;;;;2.60;2.40;;;22.60;16.90;;;;;;4993622;28;20472;-82
2022/08/22 01:00:25;;;;;;;3.57;2.40;;;22.60;17.20;;;;;;5045662;28;20485;-82
2022/08/22 01:03:34;;;;;;;4.40;2.40;;;22.50;17.40;;;;;;5070505;28;20446;-82
2022/08/22 01:06:18;;;;;;;2.40;2.20;;;22.50;16.70;;;;;;5069900;28;20473;-82
2022/08/22 01:08:59;;;;;;;4.33;2.37;;;22.50;18.40;;;;;;5056730;28;20458;-81
2022/08/22 01:11:40;;;;;;;2.60;2.40;;;22.60;18.40;;;;;;5069682;28;20541;-82
2022/08/22 01:14:20;;;;;;;2.97;2.67;;;22.60;18.30;;;;;;5069506;28;20531;-81
2022/08/22 01:17:41;;;;;;;4.30;2.57;;;22.50;17.90;;;;;;5070339;28;20492;-83
2022/08/22 01:20:51;;;;;;;2.77;2.57;;;22.50;17.20;;;;;;5063109;28;20456;-81
2022/08/22 01:23:59;;;;;;;3.53;2.23;;;22.50;17.10;;;;;;5058772;28;20472;-82
2022/08/22 01:26:57;;;;;;;2.30;2.10;;;22.50;17.10;;;;;;5053392;28;20479;-82
2022/08/22 01:29:59;;;;;;;2.60;1.77;;;22.50;18.20;;;;;;5070947;28;20453;-82
2022/08/22 01:33:07;;;;;;;2.33;2.13;;;22.50;18.90;;;;;;5043349;28;20518;-82
2022/08/22 01:35:57;;;;;;;2.83;2.27;;;22.50;18.40;;;;;;5053667;28;20464;-82
2022/08/22 01:39:00;;;;;;;2.23;2.03;;;22.40;18.80;;;;;;5070118;28;20469;-83
2022/08/22 01:41:59;;;;;;;2.47;2.20;;;22.40;18.40;;;;;;5069916;28;20969;-83
2022/08/22 01:44:49;;;;;;;3.43;3.10;;;22.40;18.80;;;;;;5068260;28;20474;-82
2022/08/22 01:47:22;;;;;;;5.67;2.50;;;22.40;18.20;;;;;;5069868;28;20449;-81
2022/08/22 01:49:57;;;;;;;3.43;2.50;;;22.40;30.30;;;;;;5068101;28;20461;-81
2022/08/22 01:52:43;;;;;;;2.93;2.40;;;22.40;18.40;;;;;;5061405;28;20961;-82
2022/08/22 01:55:30;;;;;;;2.73;2.53;;;22.30;17.80;;;;;;5069542;28;20523;-81
2022/08/22 01:58:01;;;;;;;2.90;2.20;;;22.30;19.00;;;;;;5057654;28;20529;-82
2022/08/22 02:00:34;;;;;;;3.90;2.33;;;22.20;17.70;;;;;;5056983;28;20462;-82
2022/08/22 02:03:21;;;;;;;2.93;2.30;;;22.20;17.10;;;;;;5064800;28;20454;-82
2022/08/22 02:05:55;;;;;;;2.50;2.27;;;22.20;16.40;;;;;;5068093;28;21003;-81
2022/08/22 02:08:44;;;;;;;2.77;2.10;;;22.20;16.30;;;;;;5069411;28;20489;-82
2022/08/22 02:11:34;;;;;;;2.63;2.20;;;22.10;16.60;;;;;;5065523;28;21187;-82
2022/08/22 02:14:13;;;;;;;1.80;1.70;;;22.10;15.80;;;;;;5068895;28;20561;-81
2022/08/22 02:16:44;;;;;;;4.80;2.00;;;22.10;15.80;;;;;;5069382;28;20452;-81
2022/08/22 02:19:39;;;;;;;2.73;2.07;;;22.10;16.20;;;;;;5060468;28;20950;-81
2022/08/22 02:22:22;;;;;;;3.10;1.90;;;22.10;15.70;;;;;;5073146;28;20873;-81
2022/08/22 02:24:59;;;;;;;2.50;2.00;;;22.00;15.90;;;;;;5072729;28;20472;-81
2022/08/22 02:27:36;;;;;;;3.17;2.27;;;22.10;16.60;;;;;;5069864;28;20450;-82
2022/08/22 02:30:11;;;;;;;2.40;1.73;;;22.00;16.80;;;;;;5073691;28;20469;-81
2022/08/22 02:32:51;;;;;;;2.63;2.20;;;22.00;16.40;;;;;;5073230;28;20450;-82
2022/08/22 02:35:27;;;;;;;2.73;1.93;;;22.00;16.40;;;;;;5073200;28;20466;-82
2022/08/22 02:38:05;;;;;;;3.17;2.70;;;21.90;16.20;;;;;;5073114;28;20462;-82
2022/08/22 02:40:40;;;;;;;2.53;1.67;;;22.00;17.00;;;;;;5059785;28;20859;-81
2022/08/22 02:43:17;;;;;;;3.33;2.00;;;21.90;18.70;;;;;;5066778;28;20461;-82
2022/08/22 02:45:53;;;;;;;3.57;2.57;;;21.90;17.00;;;;;;5066563;28;20485;-81
2022/08/22 02:48:33;;;;;;;2.40;2.07;;;21.90;29.10;;;;;;5072952;28;20446;-82
2022/08/22 02:51:06;;;;;;;2.87;1.80;;;21.90;16.90;;;;;;5069251;28;20947;-81
2022/08/22 02:53:39;;;;;;;5.80;2.23;;;21.80;16.30;;;;;;5063935;28;20478;-82
2022/08/22 02:56:14;;;;;;;3.33;2.47;;;21.80;17.10;;;;;;5069574;28;20514;-82
2022/08/22 02:58:50;;;;;;;3.03;2.07;;;21.80;16.50;;;;;;5072872;28;20519;-81
2022/08/22 03:01:38;;;;;;;3.63;2.40;;;21.80;16.00;;;;;;5068344;28;20454;-82
2022/08/22 03:04:28;;;;;;;3.63;2.23;;;21.80;15.00;;;;;;5065340;28;20479;-81
2022/08/22 03:07:14;;;;;;;2.50;2.13;;;21.70;15.50;;;;;;5072232;28;20829;-82
2022/08/22 03:09:48;;;;;;;2.83;2.00;;;21.70;15.80;;;;;;5072794;28;20443;-82
2022/08/22 03:12:30;;;;;;;3.97;2.17;;;21.70;16.60;;;;;;5072328;28;20453;-81
2022/08/22 03:15:05;;;;;;;3.50;2.73;;;21.70;17.00;;;;;;5071580;28;20471;-81
2022/08/22 03:17:38;;;;;;;2.47;2.23;;;21.70;17.00;;;;;;5062051;28;21004;-82
2022/08/22 03:20:12;;;;;;;3.57;2.30;;;21.70;16.30;;;;;;5072096;28;21123;-81
2022/08/22 03:22:47;;;;;;;2.77;2.57;;;21.70;17.30;;;;;;5068969;28;20889;-81
2022/08/22 03:25:26;;;;;;;3.67;2.63;;;21.70;17.20;;;;;;5061963;28;20473;-82
2022/08/22 03:27:59;;;;;;;5.43;2.53;;;21.70;17.30;;;;;;5070580;28;20459;-82
2022/08/22 03:30:37;;;;;;;4.03;2.20;;;21.60;18.20;;;;;;5071377;28;20473;-81
2022/08/22 03:33:17;;;;;;;2.43;1.93;;;21.60;17.60;;;;;;5072368;28;20848;-82
2022/08/22 03:36:14;;;;;;;3.63;2.10;;;21.60;17.10;;;;;;5068525;28;20828;-81
2022/08/22 03:39:02;;;;;;;4.63;3.03;;;21.60;16.30;;;;;;5063390;28;20485;-82
2022/08/22 03:42:02;;;;;;;2.17;2.00;;;21.60;17.50;;;;;;5061239;28;20835;-80
2022/08/22 03:45:13;;;;;;;3.20;2.33;;;21.50;16.20;;;;;;5068400;28;20482;-81
2022/08/22 03:48:01;;;;;;;2.60;2.33;;;21.50;16.90;;;;;;5070057;28;20482;-81
2022/08/22 03:51:08;;;;;;;3.00;2.50;;;21.50;16.60;;;;;;5070937;28;20449;-82
2022/08/22 03:53:59;;;;;;;2.23;2.00;;;21.40;16.30;;;;;;5052701;28;20487;-81
2022/08/22 03:56:57;;;;;;;2.40;2.20;;;21.40;17.60;;;;;;5070029;28;20443;-81
2022/08/22 03:59:52;;;;;;;3.17;2.40;;;21.40;16.10;;;;;;5071130;28;21033;-81
2022/08/22 04:02:45;;;;;;;2.70;2.50;;;21.40;16.10;;;;;;5063375;28;20883;-83
2022/08/22 04:05:49;;;;;;;2.53;2.10;;;21.30;16.30;;;;;;5068635;28;20524;-82
2022/08/22 04:08:54;;;;;;;4.73;2.30;;;21.30;16.20;;;;;;5063394;28;20442;-81
2022/08/22 04:11:40;;;;;;;3.97;3.00;;;21.30;16.30;;;;;;5066282;28;20517;-81
2022/08/22 04:14:59;;;;;;;4.57;2.10;;;21.30;16.80;;;;;;5050395;28;20541;-81
2022/08/22 04:17:54;;;;;;;3.27;2.97;;;21.20;16.30;;;;;;5056241;28;20454;-82
2022/08/22 04:20:59;;;;;;;2.67;2.43;;;21.20;16.10;;;;;;5064352;28;20528;-81
2022/08/22 04:23:43;;;;;;;4.40;3.00;;;21.20;15.70;;;;;;5069426;28;20925;-82
2022/08/22 04:26:17;;;;;;;4.50;2.07;;;21.10;16.40;;;;;;5055184;28;20471;-83
2022/08/22 04:28:48;;;;;;;3.23;2.10;;;21.10;16.90;;;;;;5058701;28;20456;-82
2022/08/22 04:31:22;;;;;;;2.93;2.63;;;21.10;17.40;;;;;;5063109;28;20463;-82
2022/08/22 04:34:01;;;;;;;2.63;2.43;;;21.10;20.50;;;;;;5055974;28;20580;-81
2022/08/22 04:36:39;;;;;;;2.50;2.30;;;21.10;16.70;;;;;;5059207;28;20471;-82
2022/08/22 04:39:12;;;;;;;2.83;2.20;;;21.10;16.70;;;;;;5067523;28;20459;-80
2022/08/22 04:41:50;;;;;;;3.27;2.63;;;21.10;16.40;;;;;;5066650;28;21311;-82
2022/08/22 04:44:24;;;;;;;3.47;2.30;;;21.10;16.70;;;;;;5052281;28;20466;-82
2022/08/22 04:46:59;;;;;;;3.03;1.90;;;21.00;16.50;;;;;;5067383;28;20478;-81
2022/08/22 04:49:33;;;;;;;3.97;2.73;;;21.00;16.60;;;;;;5059151;28;20465;-81
2022/08/22 04:52:12;;;;;;;3.13;2.70;;;21.00;16.20;;;;;;5057454;28;20447;-82
2022/08/22 04:54:51;;;;;;;2.47;2.27;;;21.00;15.40;;;;;;5065799;28;20466;-81
2022/08/22 04:57:31;;;;;;;3.37;2.93;;;21.00;15.90;;;;;;5069815;28;20556;-81
2022/08/22 05:00:01;;;;;;;3.33;2.50;;;20.90;16.20;;;;;;5055811;28;20459;-82
2022/08/22 05:02:30;;;;;;;2.30;2.10;;;21.00;17.60;;;;;;5061836;28;20455;-82
2022/08/22 05:05:02;;;;;;;2.60;2.30;;;20.90;17.40;;;;;;5068180;28;20761;-82
2022/08/22 05:07:35;;;;;;;5.63;2.20;;;20.90;17.30;;;;;;5057887;28;20490;-81
2022/08/22 05:10:07;;;;;;;3.97;2.27;;;20.90;16.80;;;;;;5057638;28;20504;-81
2022/08/22 05:12:42;;;;;;;3.03;2.73;;;20.90;16.70;;;;;;5064682;28;20539;-82
2022/08/22 05:15:18;;;;;;;3.10;2.63;;;21.00;16.70;;;;;;5063906;28;20464;-82
2022/08/22 05:17:53;;;;;;;3.27;2.40;;;20.90;17.20;;;;;;5065739;28;21009;-81
2022/08/22 05:20:24;;;;;;;2.43;2.17;;;20.90;28.80;;;;;;5071188;28;20454;-81
2022/08/22 05:22:58;;;;;;;2.93;2.53;;;20.90;19.20;;;;;;5069488;28;20463;-82
2022/08/22 05:25:28;;;;;;;2.40;2.13;;;20.90;18.50;;;;;;5068613;28;20486;-81
2022/08/22 05:28:10;;;;;;;5.53;1.93;;;21.00;18.80;;;;;;5075223;28;20482;-82
2022/08/22 05:30:39;;;;;;;3.70;2.93;;;21.00;23.10;;;;;;5070485;28;20545;-82
2022/08/22 05:33:16;;;;;;;3.60;1.93;;;21.00;19.60;;;;;;5067464;28;20451;-82
2022/08/22 05:35:49;;;;;;;2.80;2.07;;;21.00;18.80;;;;;;5080187;28;20462;-81
2022/08/22 05:38:30;;;;;;;3.20;2.80;;;21.10;19.80;;;;;;5068139;28;20464;-82
2022/08/22 05:41:05;;;;;;;3.27;2.43;;;21.10;19.70;;;;;;5070359;28;20459;-81
2022/08/22 05:43:37;;;;;;;4.13;3.50;;;21.10;21.30;;;;;;5058235;28;20893;-82
2022/08/22 05:46:08;;;;;;;3.67;3.37;;;21.20;21.20;;;;;;5068643;28;20454;-82
2022/08/22 05:48:42;;;;;;;5.20;3.07;;;21.20;21.20;;;;;;5068574;28;20471;-82
2022/08/22 05:51:17;;;;;;;3.27;2.97;;;21.20;21.50;;;;;;5060113;28;20978;-81
2022/08/22 05:53:51;;;;;;;3.80;2.63;;;21.20;22.50;;;;;;5074011;28;20517;-83
2022/08/22 05:56:27;;;;;;;5.60;2.87;;;21.20;23.30;;;;;;5066537;28;20542;-82
2022/08/22 05:59:01;;;;;;;5.33;2.70;;;21.20;22.80;;;;;;5069139;28;20492;-82
2022/08/22 06:01:45;;;;;;;2.83;2.50;;;21.30;23.70;;;;;;5073911;28;20865;-81
2022/08/22 06:04:22;;;;;;;3.50;2.67;;;21.30;23.70;;;;;;5068462;28;20467;-82
2022/08/22 06:06:56;;;;;;;3.40;3.00;;;21.30;24.00;;;;;;5063104;28;20809;-82
2022/08/22 06:09:35;;;;;;;4.03;2.70;;;21.40;23.70;;;;;;5061021;28;20462;-82
2022/08/22 06:12:10;;;;;;;3.67;3.17;;;21.50;24.80;;;;;;5073162;28;20492;-82
2022/08/22 06:14:58;;;;;;;4.00;3.63;;;21.50;25.30;;;;;;5064619;28;20563;-81
2022/08/22 06:17:31;;;;;;;4.00;2.70;;;21.60;26.20;;;;;;5072569;28;20451;-81
2022/08/22 06:20:00;;;;;;;3.30;2.50;;;21.70;27.70;;;;;;5073721;28;20453;-81
2022/08/22 06:22:32;;;;;;;3.80;3.40;;;21.70;28.10;;;;;;5073382;28;20443;-80
2022/08/22 06:25:07;;;;;;;3.27;2.97;;;21.90;29.50;;;;;;5070123;28;20478;-80
2022/08/22 06:27:36;;;;;;;3.33;2.93;;;22.00;29.60;;;;;;5073099;28;20485;-81
2022/08/22 06:30:06;;;;;;;5.00;3.10;;;22.20;30.10;;;;;;5073040;28;20458;-81
2022/08/22 06:32:40;;;;;;;3.33;3.00;;;22.30;31.20;;;;;;5073382;28;20990;-81
2022/08/22 06:36:29;;;;;;;3.17;2.87;;;22.40;33.10;;;;;;5072114;28;20470;-81
2022/08/22 06:38:21;;;;;;;4.07;3.00;;;22.50;32.90;;;;;;5071579;28;20451;-81
2022/08/22 06:40:54;;;;;;;5.00;3.10;;;22.70;32.80;;;;;;5066676;28;20459;-81
2022/08/22 06:43:24;;;;;;;5.97;3.20;;;22.80;33.30;;;;;;5057639;28;20467;-82
2022/08/22 06:45:53;;;;;;;5.10;2.73;;;22.90;48.50;;;;;;5059610;28;20442;-82
2022/08/22 06:48:23;;;;;;;3.97;2.50;;;23.10;35.90;;;;;;5071226;28;20483;-81
2022/08/22 06:50:57;;;;;;;2.70;2.37;;;23.20;36.60;;;;;;5070483;28;20910;-82
2022/08/22 06:53:32;;;;;;;2.87;2.67;;;23.30;38.50;;;;;;5071812;28;22225;-82
2022/08/22 06:56:04;;;;;;;2.40;2.20;;;23.50;41.30;;;;;;5069765;28;20453;-82
2022/08/22 06:58:37;;;;;;;5.17;2.23;;;23.60;40.50;;;;;;5063793;28;20455;-81
2022/08/22 07:01:10;;;;;;;2.50;2.20;;;23.70;42.80;;;;;;5070717;28;20458;-82
2022/08/22 07:03:44;;;;;;;4.20;3.40;;;23.80;43.30;;;;;;5070900;28;20477;-82
2022/08/22 07:06:15;;;;;;;3.33;2.27;;;24.00;44.30;;;;;;5071003;28;20499;-81
2022/08/22 07:08:44;;;;;;;2.83;2.27;;;24.10;45.60;;;;;;5071765;28;20470;-81
2022/08/22 07:11:20;;;;;;;3.00;2.37;;;24.20;46.70;;;;;;5072100;28;20457;-81
2022/08/22 07:13:53;;;;;;;2.83;2.00;;;24.30;46.80;;;;;;5071333;28;20478;-82
2022/08/22 07:16:30;;;;;;;2.50;2.00;;;24.40;47.90;;;;;;5068491;28;20447;-82
2022/08/22 07:18:58;;;;;;;2.83;2.63;;;24.50;47.40;;;;;;5072776;28;20450;-81
2022/08/22 07:21:29;;;;;;;4.83;2.97;;;24.60;49.50;;;;;;5071739;28;20434;-82
2022/08/22 07:24:03;;;;;;;5.67;3.10;;;24.70;50.20;;;;;;5072501;28;20484;-82
2022/08/22 07:26:43;;;;;;;3.33;2.40;;;24.80;50.30;;;;;;5071811;28;20970;-81
2022/08/22 07:29:21;;;;;;;4.27;3.13;;;24.80;48.50;;;;;;5072048;28;20493;-83
2022/08/22 07:31:57;;;;;;;3.13;2.87;;;24.90;48.30;;;;;;5070679;28;20462;-82
2022/08/22 07:34:43;;;;;;;2.43;2.10;;;25.00;48.60;;;;;;5072505;28;20490;-82
2022/08/22 07:37:17;;;;;;;2.33;2.00;;;25.00;47.60;;;;;;5060035;28;20450;-82
2022/08/22 07:39:52;;;;;;;3.90;2.03;;;25.30;47.70;;;;;;5068217;28;20447;-82
2022/08/22 07:42:25;;;;;;;4.63;1.90;;;25.50;49.30;;;;;;5051919;28;20443;-83
2022/08/22 07:45:07;;;;;;;4.10;2.33;;;25.70;52.10;;;;;;5071143;28;20474;-81
2022/08/22 07:47:52;;;;;;;3.10;1.90;;;25.70;51.60;;;;;;5072361;28;20489;-81
2022/08/22 07:50:24;;;;;;;4.30;1.80;;;25.80;47.90;;;;;;5063619;28;20454;-82
2022/08/22 07:52:55;;;;;;;1.80;1.40;;;26.10;50.30;;;;;;5072417;28;20465;-82
2022/08/22 07:55:26;;;;;;;3.50;1.70;;;26.20;51.30;;;;;;5060234;28;20870;-82
2022/08/22 07:57:59;;;;;;;1.87;1.77;;;26.20;49.20;;;;;;5070464;28;20466;-82
2022/08/22 08:00:28;;;;;;;2.07;1.87;;;26.20;49.60;;;;;;5071832;28;20490;-82
2022/08/22 08:03:01;;;;;;;2.50;2.30;;;26.10;50.70;;;;;;5064920;28;20455;-82
2022/08/22 08:05:32;;;;;;;2.03;1.80;;;26.10;48.40;;;;;;5062661;28;20481;-82
2022/08/22 08:08:04;;;;;;;1.80;1.70;;;26.10;47.50;;;;;;5070798;28;20864;-82
2022/08/22 08:10:34;;;;;;;2.10;1.90;;;26.00;46.50;;;;;;5069803;28;20455;-81
2022/08/22 08:13:08;;;;;;;3.67;2.10;;;26.00;47.40;;;;;;5071393;28;20547;-82
2022/08/22 08:15:39;;;;;;;3.37;2.20;;;26.00;46.80;;;;;;5068549;28;20461;-81
2022/08/22 08:18:29;;;;;;;2.33;2.10;;;26.00;46.50;;;;;;5071402;28;20541;-81
2022/08/22 08:21:00;;;;;;;4.03;2.13;;;26.00;46.80;;;;;;5070971;28;20523;-82
2022/08/22 08:23:36;;;;;;;1.97;1.60;;;26.00;45.80;;;;;;5069355;28;20470;-82
2022/08/22 08:26:11;;;;;;;2.13;1.90;;;26.00;45.60;;;;;;5070368;28;21032;-82
2022/08/22 08:28:44;;;;;;;3.17;1.90;;;26.00;45.00;;;;;;5070706;28;20462;-82
2022/08/22 08:31:20;;;;;;;1.87;1.77;;;26.00;45.20;;;;;;5063133;28;20448;-81
2022/08/22 08:33:53;;;;;;;3.43;2.60;;;26.00;44.80;;;;;;5066138;28;20466;-81
2022/08/22 08:36:32;;;;;;;3.30;1.80;;;26.00;44.60;;;;;;5070448;28;20789;-81
2022/08/22 08:39:12;;;;;;;2.03;1.87;;;26.10;42.90;;;;;;5070414;28;20458;-82
2022/08/22 08:42:12;;;;;;;6.23;2.80;;;26.00;42.70;;;;;;5052245;28;20570;-82
2022/08/22 08:45:09;;;;;;;1.80;1.70;;;26.10;42.70;;;;;;5051109;28;20548;-82
2022/08/22 08:48:05;;;;;;;3.60;2.03;;;26.10;41.40;;;;;;5070437;28;20467;-81
2022/08/22 08:50:49;;;;;;;2.47;2.00;;;26.10;40.70;;;;;;5056990;28;20466;-82
2022/08/22 08:53:57;;;;;;;3.33;1.73;;;26.10;40.20;;;;;;5063752;28;20469;-82
2022/08/22 08:56:35;;;;;;;2.10;1.83;;;26.10;38.60;;;;;;5069229;28;20454;-80
2022/08/22 08:59:12;;;;;;;2.00;1.83;;;26.10;41.80;;;;;;5059423;28;20446;-81
2022/08/22 09:02:06;;;;;;;1.80;1.70;;;26.20;42.20;;;;;;5069427;28;20507;-81
2022/08/22 09:05:29;;;;;;;1.80;1.70;;;26.20;42.10;;;;;;5069332;28;20489;-82
2022/08/22 09:08:18;;;;;;;2.40;2.20;;;26.30;40.70;;;;;;5070114;28;20477;-82
2022/08/22 09:11:24;;;;;;;3.27;1.67;;;26.30;41.70;;;;;;5061145;28;20481;-81
2022/08/22 09:14:11;;;;;;;1.83;1.73;;;26.40;41.90;;;;;;5066154;28;21097;-82
2022/08/22 09:17:03;;;;;;;2.40;1.90;;;26.40;42.90;;;;;;5068893;28;20458;-82
2022/08/22 09:20:06;;;;;;;2.20;1.80;;;26.40;57.00;;;;;;5068997;28;20462;-81
2022/08/22 09:23:16;;;;;;;1.90;1.70;;;26.50;43.80;;;;;;5068905;28;20458;-82
2022/08/22 09:25:50;;;;;;;3.20;1.70;;;26.50;43.40;;;;;;5068878;28;20485;-81
2022/08/22 09:28:24;;;;;;;2.33;2.10;;;26.60;44.50;;;;;;5068708;28;20500;-81
2022/08/22 09:31:19;;;;;;;1.70;1.60;;;26.60;43.70;;;;;;5067130;28;20452;-81
2022/08/22 09:34:13;;;;;;;2.87;1.90;;;26.70;43.30;;;;;;5069183;28;20466;-82
2022/08/22 09:37:06;;;;;;;3.40;1.83;;;26.70;44.80;;;;;;5069263;28;20451;-82
2022/08/22 09:39:43;;;;;;;2.23;2.03;;;26.70;45.70;;;;;;5060205;28;20438;-81
2022/08/22 09:42:23;;;;;;;2.17;1.60;;;26.80;47.40;;;;;;5068650;28;20457;-82
2022/08/22 09:45:37;;;;;;;2.70;1.60;;;26.80;45.40;;;;;;5067734;28;20478;-81
2022/08/22 09:48:19;;;;;;;1.67;1.57;;;26.80;42.50;;;;;;5024847;28;20837;-81
2022/08/22 09:51:02;;;;;;;2.70;2.03;;;26.90;42.20;;;;;;5060679;28;20543;-81
2022/08/22 09:54:07;;;;;;;2.20;2.00;;;26.90;44.90;;;;;;5068855;28;20565;-82
2022/08/22 09:56:45;;;;;;;1.90;1.70;;;27.00;46.30;;;;;;5068991;28;20459;-81
2022/08/22 09:59:20;;;;;;;1.47;1.37;;;27.10;48.30;;;;;;5068768;28;20461;-82
2022/08/22 10:01:57;;;;;;;2.27;1.80;;;27.10;48.60;;;;;;5068372;28;20458;-82
2022/08/22 10:04:55;;;;;;;1.70;1.60;;;27.20;50.20;;;;;;5067986;28;20615;-81
2022/08/22 10:07:49;;;;;;;2.10;1.90;;;27.20;49.20;;;;;;5065967;28;20519;-82
2022/08/22 10:10:41;;;;;;;3.03;1.93;;;27.30;49.00;;;;;;5068012;28;20491;-81
2022/08/22 10:13:24;;;;;;;2.37;2.03;;;27.30;48.20;;;;;;5065573;28;20455;-82
2022/08/22 10:15:59;;;;;;;1.80;1.70;;;27.40;49.80;;;;;;5052155;28;20458;-82
2022/08/22 10:18:36;;;;;;;2.17;2.07;;;27.40;47.70;;;;;;5068348;28;20446;-82
2022/08/22 10:21:26;;;;;;;3.13;1.67;;;27.50;48.10;;;;;;5068318;28;20474;-83
2022/08/22 10:24:03;;;;;;;4.60;1.87;;;27.50;48.50;;;;;;5066966;28;20477;-82
2022/08/22 10:26:43;;;;;;;2.17;1.60;;;27.60;48.00;;;;;;5067404;28;20453;-79
2022/08/22 10:29:31;;;;;;;1.43;1.33;;;27.50;46.90;;;;;;5068182;28;20511;-83
2022/08/22 10:32:08;;;;;;;2.20;1.77;;;27.50;49.80;;;;;;5068555;28;20459;-82
2022/08/22 10:34:47;;;;;;;2.30;2.03;;;27.40;48.60;;;;;;5068753;28;20466;-82
2022/08/22 10:37:23;;;;;;;2.03;1.87;;;27.40;46.60;;;;;;5068137;28;20446;-82
2022/08/22 10:40:00;;;;;;;4.93;2.00;;;27.40;45.50;;;;;;5068371;28;20942;-82
2022/08/22 10:42:33;;;;;;;2.80;1.90;;;27.40;44.80;;;;;;5072337;28;20499;-81
2022/08/22 10:45:21;;;;;;;2.03;1.60;;;27.30;43.90;;;;;;5071577;28;21052;-82
2022/08/22 10:48:33;;;;;;;2.30;2.10;;;27.30;44.90;;;;;;5072534;28;20497;-82
2022/08/22 10:51:23;;;;;;;2.03;1.70;;;27.30;43.10;;;;;;5070829;28;20471;-82
2022/08/22 10:54:27;;;;;;;1.60;1.50;;;27.30;42.90;;;;;;5057554;28;20517;-82
2022/08/22 10:57:11;;;;;;;2.80;2.03;;;27.30;44.40;;;;;;5065614;28;20455;-82
2022/08/22 10:59:45;;;;;;;3.40;2.07;;;27.30;43.10;;;;;;5072903;28;20537;-82
2022/08/22 11:02:36;;;;;;;2.50;1.80;;;27.30;42.50;;;;;;5072863;28;20481;-83
2022/08/22 11:05:34;;;;;;;4.60;2.33;;;27.30;41.00;;;;;;5072469;28;20463;-83
2022/08/22 11:08:35;;;;;;;4.53;1.90;;;27.40;41.40;;;;;;5068893;28;20513;-82
2022/08/22 11:11:16;;;;;;;1.67;1.57;;;27.40;40.60;;;;;;5064245;28;20507;-82
2022/08/22 11:14:06;;;;;;;2.60;2.17;;;27.40;41.30;;;;;;5061828;28;20565;-82
2022/08/22 11:16:47;;;;;;;2.57;2.37;;;27.30;41.30;;;;;;5072153;28;20455;-81
2022/08/22 11:19:47;;;;;;;3.47;1.90;;;27.40;41.90;;;;;;5072307;28;20830;-81
2022/08/22 11:22:29;;;;;;;3.90;2.37;;;27.30;40.40;;;;;;5070877;28;20504;-82
2022/08/22 11:25:19;;;;;;;2.27;2.17;;;27.30;39.50;;;;;;5072719;28;20470;-82
2022/08/22 11:28:22;;;;;;;2.20;2.00;;;27.30;40.50;;;;;;5058138;28;20480;-82
2022/08/22 11:31:03;;;;;;;2.37;1.73;;;27.30;41.60;;;;;;5068926;28;20486;-81
2022/08/22 11:33:41;;;;;;;1.70;1.60;;;27.30;41.60;;;;;;5063639;28;20565;-82
2022/08/22 11:36:30;;;;;;;1.60;1.50;;;27.40;41.60;;;;;;5070269;28;20457;-82
2022/08/22 11:39:22;;;;;;;2.07;1.60;;;27.40;41.40;;;;;;5067224;28;20450;-82
2022/08/22 11:41:57;;;;;;;1.90;1.80;;;27.40;42.70;;;;;;5071297;28;20454;-82
2022/08/22 11:44:31;;;;;;;3.80;2.10;;;27.40;44.40;;;;;;5071330;28;20470;-82
2022/08/22 11:47:08;;;;;;;2.43;2.03;;;27.50;44.50;;;;;;5069986;28;20454;-82
2022/08/22 11:49:52;;;;;;;2.70;1.80;;;27.60;44.20;;;;;;5069499;28;20450;-81
2022/08/22 11:52:26;;;;;;;2.00;1.90;;;27.60;43.70;;;;;;5071116;28;20501;-82
2022/08/22 11:55:19;;;;;;;2.53;1.80;;;27.70;43.30;;;;;;5070739;28;20928;-81
2022/08/22 11:57:51;;;;;;;2.33;2.13;;;27.80;44.50;;;;;;5070696;28;20512;-82
2022/08/22 12:00:34;;;;;;;2.80;1.93;;;27.70;43.10;;;;;;5071174;28;20533;-82
2022/08/22 12:03:26;;;;;;;2.50;2.00;;;27.70;42.00;;;;;;5070549;28;20458;-82
2022/08/22 12:06:01;;;;;;;2.07;1.67;;;27.70;41.50;;;;;;5066709;28;20507;-81
2022/08/22 12:09:06;;;;;;;1.97;1.80;;;27.80;43.90;;;;;;5069216;28;20461;-82
2022/08/22 12:11:44;;;;;;;1.60;1.50;;;27.80;44.10;;;;;;5067969;28;20474;-82
2022/08/22 12:14:21;;;;;;;1.67;1.57;;;27.90;42.90;;;;;;5062860;28;20466;-81
2022/08/22 12:17:07;;;;;;;2.10;1.90;;;27.90;44.80;;;;;;5063715;28;20486;-82
2022/08/22 12:19:46;;;;;;;1.70;1.60;;;27.90;44.50;;;;;;5070553;28;20455;-83
2022/08/22 12:22:51;;;;;;;2.00;1.90;;;28.00;58.80;;;;;;5070146;28;20475;-83
2022/08/22 12:25:40;;;;;;;3.30;1.80;;;28.00;43.40;;;;;;5070217;28;20474;-82
2022/08/22 12:28:23;;;;;;;1.70;1.60;;;28.00;43.40;;;;;;5070806;28;20461;-82
2022/08/22 12:31:02;;;;;;;2.33;2.13;;;28.00;43.10;;;;;;5070202;28;20482;-82
2022/08/22 12:33:43;;;;;;;3.00;2.07;;;28.00;42.50;;;;;;5068332;28;20485;-82
2022/08/22 12:36:49;;;;;;;1.97;1.50;;;27.90;56.40;;;;;;5061189;28;20461;-82
2022/08/22 12:40:02;;;;;;;3.90;2.00;;;27.90;42.60;;;;;;5062554;28;20515;-81
2022/08/22 12:42:53;;;;;;;1.87;1.60;;;27.90;41.70;;;;;;5056513;28;20467;-82
2022/08/22 12:45:41;;;;;;;1.63;1.53;;;27.90;41.50;;;;;;5069457;28;20506;-82
2022/08/22 12:48:21;;;;;;;3.30;1.80;;;27.80;42.30;;;;;;5057755;28;20454;-82
2022/08/22 12:50:54;;;;;;;1.90;1.47;;;27.90;40.90;;;;;;5056635;28;20565;-83
2022/08/22 12:54:00;;;;;;;1.70;1.60;;;27.90;42.50;;;;;;5069958;28;20846;-82
2022/08/22 12:56:42;;;;;;;2.20;1.60;;;27.90;40.20;;;;;;5069217;28;20974;-82
2022/08/22 12:59:25;;;;;;;1.60;1.50;;;27.90;39.90;;;;;;5070145;28;20961;-81
2022/08/22 13:01:56;;;;;;;1.63;1.53;;;27.80;39.90;;;;;;5069831;28;20445;-82
2022/08/22 13:04:26;;;;;;;3.20;1.70;;;27.80;42.00;;;;;;5069826;28;20463;-82
2022/08/22 13:07:16;;;;;;;2.27;1.83;;;27.80;43.70;;;;;;5067958;28;20459;-82
2022/08/22 13:09:50;;;;;;;1.57;1.37;;;27.80;40.70;;;;;;5069331;28;20451;-82
2022/08/22 13:12:25;;;;;;;1.93;1.73;;;27.80;41.70;;;;;;5063915;28;20480;-82
2022/08/22 13:14:58;;;;;;;1.83;1.63;;;27.80;40.70;;;;;;5054761;28;20471;-82
2022/08/22 13:17:27;;;;;;;3.20;2.10;;;27.80;42.10;;;;;;5066013;28;20454;-82
2022/08/22 13:20:11;;;;;;;1.90;1.70;;;27.80;42.00;;;;;;5069633;28;20454;-83
2022/08/22 13:22:41;;;;;;;3.73;2.00;;;27.80;41.80;;;;;;5068275;28;20449;-82
2022/08/22 13:25:23;;;;;;;1.73;1.63;;;27.80;42.50;;;;;;5069129;28;20463;-82
2022/08/22 13:27:55;;;;;;;2.03;1.70;;;27.80;40.40;;;;;;5060709;28;20455;-82
2022/08/22 13:30:32;;;;;;;2.00;1.90;;;27.90;44.60;;;;;;5053373;28;20474;-82
2022/08/22 13:33:08;;;;;;;1.77;1.67;;;27.80;44.20;;;;;;5069349;28;20441;-82
2022/08/22 13:35:44;;;;;;;2.60;2.23;;;27.90;44.10;;;;;;5069018;28;20454;-82
2022/08/22 13:38:24;;;;;;;1.70;1.60;;;27.90;43.70;;;;;;5069523;28;20447;-82
2022/08/22 13:40:57;;;;;;;1.60;1.50;;;27.90;42.20;;;;;;5069232;28;20474;-82
2022/08/22 13:43:28;;;;;;;2.10;1.77;;;28.00;42.60;;;;;;5069214;28;20470;-81
2022/08/22 13:45:59;;;;;;;4.50;2.00;;;28.00;45.20;;;;;;5066473;28;20466;-83
2022/08/22 13:48:46;;;;;;;1.70;1.60;;;28.00;45.60;;;;;;5069189;28;20565;-82
2022/08/22 13:51:23;;;;;;;2.30;1.90;;;28.10;42.70;;;;;;5069402;28;20488;-82
2022/08/22 13:53:59;;;;;;;2.47;2.00;;;28.20;45.20;;;;;;5057511;28;20467;-82
2022/08/22 13:56:39;;;;;;;2.20;1.80;;;28.20;44.30;;;;;;5056389;28;20558;-82
2022/08/22 13:59:21;;;;;;;2.20;2.00;;;28.30;46.10;;;;;;5067289;28;20531;-82
2022/08/22 14:02:16;;;;;;;1.90;1.80;;;28.30;43.10;;;;;;5066973;28;20478;-83
2022/08/22 14:04:48;;;;;;;1.70;1.60;;;28.30;43.20;;;;;;5056192;28;20466;-82